createdAt,value
2022-09-15T00:01:22.189Z,19.24
2022-09-15T00:03:50.751Z,19.38
2022-09-15T00:06:21.475Z,19.36
2022-09-15T00:08:49.761Z,19.27
2022-09-15T00:11:22.582Z,19.22
2022-09-15T00:13:52.814Z,19.19
2022-09-15T00:16:23.846Z,19.22
2022-09-15T00:18:52.143Z,19.36
2022-09-15T00:21:24.656Z,19.31
2022-09-15T00:23:52.920Z,19.22
2022-09-15T00:26:24.163Z,19.24
2022-09-15T00:28:52.522Z,19.31
2022-09-15T00:31:23.110Z,19.41
2022-09-15T00:33:52.652Z,19.34
2022-09-15T00:36:23.161Z,19.38
2022-09-15T00:38:52.527Z,19.31
2022-09-15T00:41:23.610Z,19.36
2022-09-15T00:43:56.140Z,19.33
2022-09-15T00:46:27.399Z,19.37
2022-09-15T00:49:01.139Z,19.36
2022-09-15T00:51:38.065Z,19.43
2022-09-15T00:54:10.129Z,19.54
2022-09-15T00:56:40.174Z,19.54
2022-09-15T00:59:13.108Z,19.67
2022-09-15T01:01:44.352Z,19.63
2022-09-15T01:04:13.090Z,19.68
2022-09-15T01:06:46.364Z,19.77
2022-09-15T01:09:19.078Z,19.86
2022-09-15T01:11:47.457Z,19.71
2022-09-15T01:14:15.914Z,19.79
2022-09-15T01:17:09.074Z,19.64
2022-09-15T01:19:56.244Z,19.53
2022-09-15T01:22:36.953Z,19.58
2022-09-15T01:25:09.815Z,19.55
2022-09-15T01:28:13.617Z,19.46
2022-09-15T01:30:47.285Z,19.34
2022-09-15T01:33:27.721Z,19.17
2022-09-15T01:36:04.405Z,19.09
2022-09-15T01:38:43.237Z,19.10
2022-09-15T01:41:17.381Z,19.15
2022-09-15T01:43:51.664Z,19.07
2022-09-15T01:46:24.178Z,19.20
2022-09-15T01:48:57.260Z,19.12
2022-09-15T01:51:26.935Z,19.20
2022-09-15T01:53:56.138Z,19.40
2022-09-15T01:56:24.204Z,19.41
2022-09-15T01:58:52.567Z,19.24
2022-09-15T02:01:31.948Z,19.19
2022-09-15T02:04:05.772Z,19.07
2022-09-15T02:06:44.921Z,18.99
2022-09-15T02:09:18.594Z,19.09
2022-09-15T02:11:53.375Z,19.26
2022-09-15T02:14:36.961Z,19.09
2022-09-15T02:17:06.602Z,18.92
2022-09-15T02:19:42.243Z,18.88
2022-09-15T02:22:13.372Z,18.98
2022-09-15T02:24:46.021Z,18.94
2022-09-15T02:27:20.406Z,19.07
2022-09-15T02:29:50.093Z,19.15
2022-09-15T02:32:23.658Z,18.96
2022-09-15T02:34:53.057Z,18.95
2022-09-15T02:37:23.035Z,18.95
2022-09-15T02:39:57.718Z,18.96
2022-09-15T02:42:26.814Z,18.92
2022-09-15T02:44:55.187Z,19.12
2022-09-15T02:47:28.326Z,19.20
2022-09-15T02:49:57.513Z,19.02
2022-09-15T02:52:25.545Z,19.16
2022-09-15T02:54:57.616Z,19.06
2022-09-15T02:57:25.737Z,19.26
2022-09-15T03:00:11.004Z,19.30
2022-09-15T03:02:50.032Z,19.36
2022-09-15T03:05:19.667Z,19.27
2022-09-15T03:07:50.060Z,19.31
2022-09-15T03:10:20.818Z,19.37
2022-09-15T03:12:54.822Z,19.43
2022-09-15T03:15:26.023Z,19.40
2022-09-15T03:17:59.713Z,19.33
2022-09-15T03:20:29.249Z,19.10
2022-09-15T03:22:57.358Z,19.07
2022-09-15T03:25:27.081Z,18.89
2022-09-15T03:28:00.241Z,18.69
2022-09-15T03:30:28.302Z,18.84
2022-09-15T03:32:56.379Z,18.67
2022-09-15T03:35:25.830Z,18.57
2022-09-15T03:37:54.835Z,18.55
2022-09-15T03:40:22.910Z,18.51
2022-09-15T03:42:51.006Z,18.54
2022-09-15T03:45:19.093Z,18.64
2022-09-15T03:47:47.267Z,18.50
2022-09-15T03:50:15.328Z,18.44
2022-09-15T03:52:46.147Z,18.61
2022-09-15T03:55:14.344Z,18.72
2022-09-15T03:57:42.554Z,18.73
2022-09-15T04:00:15.622Z,18.76
2022-09-15T04:02:43.928Z,18.84
2022-09-15T04:05:13.448Z,18.87
2022-09-15T04:07:41.831Z,18.85
2022-09-15T04:10:12.726Z,18.69
2022-09-15T04:12:40.879Z,18.72
2022-09-15T04:15:09.648Z,18.75
2022-09-15T04:17:37.712Z,18.75
2022-09-15T04:20:06.528Z,18.67
2022-09-15T04:22:34.973Z,18.69
2022-09-15T04:25:11.000Z,18.71
2022-09-15T04:27:40.508Z,18.72
2022-09-15T04:30:09.704Z,18.72
2022-09-15T04:32:41.736Z,18.71
2022-09-15T04:35:10.642Z,18.72
2022-09-15T04:37:38.690Z,18.75
2022-09-15T04:40:08.256Z,18.68
2022-09-15T04:42:36.439Z,18.62
2022-09-15T04:45:07.237Z,18.75
2022-09-15T04:47:37.319Z,18.68
2022-09-15T04:50:05.987Z,18.57
2022-09-15T04:52:36.599Z,18.41
2022-09-15T04:55:05.216Z,18.31
2022-09-15T04:57:34.619Z,18.60
2022-09-15T05:00:06.149Z,18.68
2022-09-15T05:02:35.724Z,18.64
2022-09-15T05:05:03.815Z,18.55
2022-09-15T05:07:33.869Z,18.75
2022-09-15T05:10:01.926Z,18.89
2022-09-15T05:12:30.937Z,18.95
2022-09-15T05:14:58.933Z,18.91
2022-09-15T05:17:27.630Z,18.98
2022-09-15T05:19:57.256Z,18.94
2022-09-15T05:22:25.402Z,18.88
2022-09-15T05:24:53.451Z,18.98
2022-09-15T05:27:21.794Z,18.92
2022-09-15T05:29:52.161Z,18.84
2022-09-15T05:32:28.533Z,18.84
2022-09-15T05:34:58.196Z,18.87
2022-09-15T05:37:26.291Z,18.99
2022-09-15T05:39:54.391Z,19.12
2022-09-15T05:42:22.521Z,19.22
2022-09-15T05:44:50.590Z,19.24
2022-09-15T05:47:20.664Z,19.33
2022-09-15T05:49:48.758Z,19.41
2022-09-15T05:52:19.309Z,19.46
2022-09-15T05:54:47.553Z,19.54
2022-09-15T05:57:15.614Z,19.57
2022-09-15T05:59:44.087Z,19.57
2022-09-15T06:02:12.384Z,19.61
2022-09-15T06:04:40.701Z,19.70
2022-09-15T06:07:08.690Z,19.72
2022-09-15T06:09:39.496Z,19.82
2022-09-15T06:12:07.926Z,19.86
2022-09-15T06:14:36.030Z,19.77
2022-09-15T06:17:04.093Z,19.85
2022-09-15T06:19:32.185Z,19.99
2022-09-15T06:22:00.267Z,19.96
2022-09-15T06:24:28.486Z,20.09
2022-09-15T06:26:58.008Z,20.22
2022-09-15T06:29:27.140Z,20.26
2022-09-15T06:31:55.297Z,20.19
2022-09-15T06:37:09.624Z,20.28
2022-09-15T06:39:37.877Z,20.37
2022-09-15T06:42:09.452Z,20.34
2022-09-15T06:44:37.691Z,20.40
2022-09-15T06:47:07.356Z,20.44
2022-09-15T06:49:35.502Z,20.43
2022-09-15T06:52:05.198Z,20.40
2022-09-15T06:54:33.314Z,20.44
2022-09-15T06:57:01.669Z,20.37
2022-09-15T06:59:31.231Z,20.44
2022-09-15T07:02:04.045Z,20.66
2022-09-15T07:04:33.104Z,20.70
2022-09-15T07:07:01.155Z,20.71
2022-09-15T07:09:29.219Z,20.81
2022-09-15T07:11:57.319Z,20.76
2022-09-15T07:14:25.431Z,20.90
2022-09-15T07:16:54.873Z,21.02
2022-09-15T07:19:22.969Z,21.16
2022-09-15T07:21:52.935Z,21.35
2022-09-15T07:24:21.744Z,21.49
2022-09-15T07:26:52.138Z,21.62
2022-09-15T07:29:20.143Z,21.94
2022-09-15T07:31:48.416Z,22.02
2022-09-15T07:34:18.220Z,22.19
2022-09-15T07:36:46.277Z,22.25
2022-09-15T07:39:14.408Z,22.36
2022-09-15T07:41:42.433Z,22.67
2022-09-15T07:44:11.972Z,22.73
2022-09-15T07:46:42.047Z,22.69
2022-09-15T07:49:11.559Z,22.63
2022-09-15T07:51:41.061Z,22.79
2022-09-15T07:54:09.202Z,22.77
2022-09-15T07:56:37.293Z,22.77
2022-09-15T07:59:05.520Z,22.79
2022-09-15T08:01:33.617Z,22.87
2022-09-15T08:04:01.902Z,23.04
2022-09-15T08:06:30.180Z,23.08
2022-09-15T08:09:00.899Z,22.99
2022-09-15T08:11:29.712Z,23.07
2022-09-15T08:13:59.779Z,23.25
2022-09-15T08:16:28.087Z,23.45
2022-09-15T08:18:57.128Z,23.54
2022-09-15T08:21:25.873Z,23.55
2022-09-15T08:23:55.356Z,23.68
2022-09-15T08:26:25.709Z,23.63
2022-09-15T08:28:56.287Z,23.70
2022-09-15T08:31:27.160Z,23.80
2022-09-15T08:33:56.620Z,23.85
2022-09-15T08:36:28.038Z,23.97
2022-09-15T08:38:56.490Z,24.20
2022-09-15T08:41:30.768Z,24.27
2022-09-15T08:44:05.436Z,24.50
2022-09-15T08:46:38.378Z,24.65
2022-09-15T08:49:14.733Z,24.51
2022-09-15T08:51:47.969Z,24.73
2022-09-15T08:54:21.687Z,24.90
2022-09-15T08:56:52.174Z,25.02
2022-09-15T08:59:21.505Z,25.10
2022-09-15T09:02:18.251Z,24.95
2022-09-15T09:05:00.045Z,25.17
2022-09-15T09:07:43.339Z,25.22
2022-09-15T09:10:17.127Z,25.31
2022-09-15T09:12:59.799Z,25.34
2022-09-15T09:15:37.819Z,25.54
2022-09-15T09:18:33.975Z,25.77
2022-09-15T09:21:05.460Z,25.82
2022-09-15T09:23:37.847Z,25.86
2022-09-15T09:26:10.359Z,25.84
2022-09-15T09:28:47.179Z,26.09
2022-09-15T09:31:20.476Z,26.30
2022-09-15T09:33:54.573Z,26.64
2022-09-15T09:36:22.945Z,26.61
2022-09-15T09:38:52.190Z,26.49
2022-09-15T09:41:25.984Z,26.28
2022-09-15T09:43:57.605Z,26.23
2022-09-15T09:46:26.781Z,26.41
2022-09-15T09:48:59.801Z,26.13
2022-09-15T09:51:32.876Z,26.41
2022-09-15T09:54:12.949Z,26.50
2022-09-15T09:56:41.545Z,26.46
2022-09-15T09:59:33.803Z,26.43
2022-09-15T10:02:16.913Z,26.63
2022-09-15T10:04:46.307Z,26.91
2022-09-15T10:07:16.219Z,26.78
2022-09-15T10:09:52.665Z,26.70
2022-09-15T10:12:24.852Z,26.63
2022-09-15T10:14:57.897Z,26.94
2022-09-15T10:17:28.288Z,26.98
2022-09-15T10:19:58.119Z,26.58
2022-09-15T10:22:29.688Z,26.84
2022-09-15T10:24:58.387Z,27.05
2022-09-15T10:27:34.407Z,27.08
2022-09-15T10:30:18.706Z,27.04
2022-09-15T10:32:46.876Z,27.01
2022-09-15T10:35:16.764Z,26.67
2022-09-15T10:38:04.922Z,26.54
2022-09-15T10:40:39.397Z,26.63
2022-09-15T10:43:20.885Z,26.58
2022-09-15T10:45:55.007Z,26.63
2022-09-15T10:48:42.683Z,26.43
2022-09-15T10:51:22.950Z,26.37
2022-09-15T10:54:03.371Z,26.30
2022-09-15T10:56:35.189Z,26.19
2022-09-15T10:59:21.415Z,26.03
2022-09-15T11:02:10.568Z,26.23
2022-09-15T11:04:47.505Z,26.20
2022-09-15T11:07:25.021Z,26.18
2022-09-15T11:10:03.037Z,25.95
2022-09-15T11:12:43.620Z,25.86
2022-09-15T11:15:26.365Z,25.89
2022-09-15T11:18:11.252Z,25.84
2022-09-15T11:20:58.445Z,25.75
2022-09-15T11:23:33.730Z,25.68
2022-09-15T11:26:08.344Z,25.77
2022-09-15T11:28:42.772Z,25.78
2022-09-15T11:31:18.220Z,25.75
2022-09-15T11:33:54.827Z,25.86
2022-09-15T11:36:29.498Z,25.85
2022-09-15T11:39:05.103Z,25.89
2022-09-15T11:41:38.375Z,25.75
2022-09-15T11:44:22.058Z,25.51
2022-09-15T11:47:14.874Z,25.34
2022-09-15T11:49:50.056Z,25.38
2022-09-15T11:52:41.190Z,25.40
2022-09-15T11:55:21.858Z,25.13
2022-09-15T11:57:58.383Z,24.78
2022-09-15T12:00:26.480Z,24.30
2022-09-15T12:03:01.640Z,24.09
2022-09-15T12:05:33.222Z,23.66
2022-09-15T12:08:06.234Z,23.75
2022-09-15T12:10:39.602Z,23.72
2022-09-15T12:13:09.020Z,23.49
2022-09-15T12:15:38.271Z,22.82
2022-09-15T12:18:37.745Z,21.53
2022-09-15T12:21:16.443Z,21.29
2022-09-15T12:23:51.976Z,20.90
2022-09-15T12:26:21.936Z,20.44
2022-09-15T12:28:58.509Z,20.26
2022-09-15T12:31:33.787Z,20.41
2022-09-15T12:34:03.683Z,20.28
2022-09-15T12:36:40.030Z,19.92
2022-09-15T12:39:23.514Z,20.01
2022-09-15T12:41:55.427Z,20.01
2022-09-15T12:44:37.468Z,20.11
2022-09-15T12:47:18.765Z,20.30
2022-09-15T12:49:48.968Z,20.26
2022-09-15T12:52:23.943Z,20.51
2022-09-15T12:54:55.668Z,20.76
2022-09-15T12:57:28.507Z,20.91
2022-09-15T13:00:28.880Z,21.04
2022-09-15T13:02:59.733Z,21.11
2022-09-15T13:05:55.125Z,21.11
2022-09-15T13:08:56.712Z,20.85
2022-09-15T13:11:40.574Z,20.80
2022-09-15T13:14:22.493Z,20.98
2022-09-15T13:16:55.546Z,20.87
2022-09-15T13:19:30.610Z,20.64
2022-09-15T13:22:04.522Z,20.33
2022-09-15T13:24:47.913Z,20.23
2022-09-15T13:27:22.176Z,20.33
2022-09-15T13:29:53.763Z,20.34
2022-09-15T13:32:36.688Z,20.34
2022-09-15T13:35:32.240Z,20.18
2022-09-15T13:38:31.666Z,20.13
2022-09-15T13:41:32.935Z,20.09
2022-09-15T13:44:21.118Z,20.09
2022-09-15T13:47:03.757Z,20.15
2022-09-15T13:49:52.727Z,20.22
2022-09-15T13:52:36.239Z,20.13
2022-09-15T13:55:27.881Z,19.70
2022-09-15T14:00:59.992Z,19.46
2022-09-15T14:03:38.016Z,19.67
2022-09-15T14:06:13.685Z,19.63
2022-09-15T14:08:44.577Z,19.58
2022-09-15T14:11:16.899Z,19.55
2022-09-15T14:13:48.777Z,19.17
2022-09-15T14:16:24.954Z,18.99
2022-09-15T14:19:00.243Z,18.94
2022-09-15T14:21:32.157Z,18.99
2022-09-15T14:24:06.207Z,18.99
2022-09-15T14:26:37.468Z,18.82
2022-09-15T14:29:16.212Z,18.75
2022-09-15T14:31:45.008Z,18.64
2022-09-15T14:34:18.241Z,18.64
2022-09-15T14:37:00.391Z,18.65
2022-09-15T14:39:29.929Z,18.62
2022-09-15T14:47:31.416Z,18.98
2022-09-15T14:50:13.296Z,19.17
2022-09-15T14:52:46.770Z,19.16
2022-09-15T14:55:23.324Z,19.17
2022-09-15T14:57:57.633Z,19.23
2022-09-15T15:00:32.204Z,19.22
2022-09-15T15:03:16.170Z,19.10
2022-09-15T15:05:54.677Z,18.92
2022-09-15T15:08:36.141Z,18.85
2022-09-15T15:11:12.927Z,18.89
2022-09-15T15:13:52.132Z,18.82
2022-09-15T15:16:27.854Z,18.71
2022-09-15T15:18:58.994Z,18.68
2022-09-15T15:21:37.423Z,18.75
2022-09-15T15:24:25.600Z,18.95
2022-09-15T15:26:53.968Z,18.98
2022-09-15T15:29:44.299Z,19.02
2022-09-15T15:32:16.194Z,18.84
2022-09-15T15:34:52.368Z,18.95
2022-09-15T15:37:26.779Z,19.05
2022-09-15T15:39:57.177Z,19.16
2022-09-15T15:42:30.657Z,19.17
2022-09-15T15:45:06.286Z,19.10
2022-09-15T15:47:38.764Z,19.19
2022-09-15T15:50:14.256Z,19.27
2022-09-15T15:52:44.044Z,19.12
2022-09-15T15:55:16.083Z,19.02
2022-09-15T15:57:45.588Z,18.91
2022-09-15T16:00:21.741Z,18.87
2022-09-15T16:02:55.882Z,18.81
2022-09-15T16:05:29.226Z,18.89
2022-09-15T16:08:02.593Z,18.99
2022-09-15T16:10:39.774Z,18.85
2022-09-15T16:13:11.187Z,18.99
2022-09-15T16:15:41.426Z,19.07
2022-09-15T16:18:11.380Z,19.12
2022-09-15T16:20:40.351Z,19.15
2022-09-15T16:23:15.052Z,19.20
2022-09-15T16:25:55.884Z,19.36
2022-09-15T16:28:25.122Z,19.41
2022-09-15T16:30:53.377Z,19.51
2022-09-15T16:33:23.067Z,19.23
2022-09-15T16:35:55.224Z,19.15
2022-09-15T16:38:25.924Z,19.20
2022-09-15T16:40:56.147Z,19.28
2022-09-15T16:43:25.911Z,19.37
2022-09-15T16:45:54.735Z,19.46
2022-09-15T16:48:25.392Z,19.47
2022-09-15T16:51:20.344Z,19.55
2022-09-15T16:53:47.693Z,19.50
2022-09-15T16:56:16.818Z,19.51
2022-09-15T16:58:45.166Z,19.41
2022-09-15T17:01:18.221Z,19.40
2022-09-15T17:03:49.385Z,19.33
2022-09-15T17:06:19.142Z,19.24
2022-09-15T17:08:47.355Z,19.16
2022-09-15T17:11:17.091Z,19.13
2022-09-15T17:13:46.344Z,19.13
2022-09-15T17:16:16.355Z,19.02
2022-09-15T17:18:44.589Z,19.07
2022-09-15T17:21:20.278Z,19.00
2022-09-15T17:23:50.559Z,19.03
2022-09-15T17:26:25.483Z,19.06
2022-09-15T17:28:57.867Z,19.10
2022-09-15T17:31:28.312Z,19.05
2022-09-15T17:33:56.688Z,18.84
2022-09-15T17:36:26.738Z,18.69
2022-09-15T17:38:55.670Z,18.78
2022-09-15T17:41:23.805Z,18.81
2022-09-15T17:43:53.036Z,18.84
2022-09-15T17:46:21.450Z,18.75
2022-09-15T17:48:49.615Z,18.81
2022-09-15T17:51:19.157Z,18.81
2022-09-15T17:53:55.195Z,18.67
2022-09-15T17:56:23.446Z,18.47
2022-09-15T17:58:51.741Z,18.37
2022-09-15T18:01:20.159Z,18.17
2022-09-15T18:03:48.924Z,18.07
2022-09-15T18:06:18.221Z,17.58
2022-09-15T18:08:46.725Z,17.72
2022-09-15T18:11:21.782Z,17.86
2022-09-15T18:13:50.322Z,17.92
2022-09-15T18:16:19.003Z,18.00
2022-09-15T18:18:47.804Z,18.00
2022-09-15T18:21:26.189Z,17.90
2022-09-15T18:23:55.351Z,17.71
2022-09-15T18:26:26.870Z,17.78
2022-09-15T18:28:57.187Z,17.95
2022-09-15T18:31:27.065Z,18.04
2022-09-15T18:34:00.228Z,18.09
2022-09-15T18:36:28.351Z,18.06
2022-09-15T18:38:58.889Z,18.03
2022-09-15T18:41:29.898Z,18.06
2022-09-15T18:43:59.407Z,18.07
2022-09-15T18:46:28.581Z,17.65
2022-09-15T18:48:57.614Z,17.89
2022-09-15T18:51:40.968Z,17.59
2022-09-15T18:54:14.278Z,17.83
2022-09-15T18:56:44.062Z,17.83
2022-09-15T18:59:17.448Z,17.61
2022-09-15T19:01:46.671Z,17.64
2022-09-15T19:04:15.324Z,17.51
2022-09-15T19:06:43.701Z,17.57
2022-09-15T19:09:12.304Z,17.59
2022-09-15T19:11:41.110Z,17.65
2022-09-15T19:14:10.640Z,17.69
2022-09-15T19:16:56.438Z,17.82
2022-09-15T19:19:26.149Z,17.75
2022-09-15T19:21:54.755Z,17.75
2022-09-15T19:24:23.276Z,17.75
2022-09-15T19:26:51.759Z,17.75
2022-09-15T19:29:21.568Z,17.71
2022-09-15T19:31:51.593Z,17.62
2022-09-15T19:34:19.984Z,17.61
2022-09-15T19:36:48.627Z,17.68
2022-09-15T19:39:17.082Z,17.66
2022-09-15T19:41:46.842Z,17.68
2022-09-15T19:44:16.296Z,17.76
2022-09-15T19:46:48.482Z,17.75
2022-09-15T19:49:19.060Z,17.78
2022-09-15T19:51:53.230Z,17.64
2022-09-15T19:54:21.546Z,17.65
2022-09-15T19:56:49.743Z,17.61
2022-09-15T19:59:22.130Z,17.81
2022-09-15T20:01:52.851Z,17.62
2022-09-15T20:07:06.506Z,17.76
2022-09-15T20:09:34.701Z,17.62
2022-09-15T20:12:03.893Z,17.48
2022-09-15T20:14:33.144Z,17.57
2022-09-15T20:17:03.925Z,17.58
2022-09-15T20:19:32.100Z,17.58
2022-09-15T20:22:00.397Z,17.57
2022-09-15T20:24:28.631Z,17.59
2022-09-15T20:26:58.994Z,17.65
2022-09-15T20:29:32.207Z,17.75
2022-09-15T20:32:01.359Z,17.85
2022-09-15T20:34:30.832Z,17.86
2022-09-15T20:36:59.039Z,17.82
2022-09-15T20:39:27.317Z,17.86
2022-09-15T20:41:56.267Z,17.86
2022-09-15T20:44:25.599Z,17.95
2022-09-15T20:46:54.069Z,17.92
2022-09-15T20:49:22.177Z,17.89
2022-09-15T20:51:51.717Z,17.92
2022-09-15T20:54:19.862Z,17.89
2022-09-15T20:56:49.001Z,17.89
2022-09-15T20:59:21.167Z,17.57
2022-09-15T21:01:50.418Z,17.59
2022-09-15T21:04:19.122Z,17.78
2022-09-15T21:06:47.165Z,17.92
2022-09-15T21:09:17.819Z,18.00
2022-09-15T21:11:49.083Z,17.59
2022-09-15T21:14:19.734Z,17.55
2022-09-15T21:16:47.848Z,17.48
2022-09-15T21:19:18.215Z,17.68
2022-09-15T21:21:46.425Z,17.69
2022-09-15T21:24:15.806Z,17.59
2022-09-15T21:27:03.638Z,17.68
2022-09-15T21:29:33.808Z,17.58
2022-09-15T21:32:03.318Z,17.49
2022-09-15T21:34:31.762Z,17.55
2022-09-15T21:37:00.136Z,17.51
2022-09-15T21:39:28.257Z,17.42
2022-09-15T21:41:57.782Z,17.44
2022-09-15T21:44:25.959Z,17.52
2022-09-15T21:46:54.839Z,17.47
2022-09-15T21:49:22.963Z,17.54
2022-09-15T21:51:51.475Z,17.52
2022-09-15T21:54:19.543Z,17.32
2022-09-15T21:56:47.626Z,17.27
2022-09-15T21:59:18.196Z,17.24
2022-09-15T22:01:50.647Z,17.26
2022-09-15T22:04:18.917Z,17.35
2022-09-15T22:06:50.160Z,17.38
2022-09-15T22:09:21.481Z,17.44
2022-09-15T22:11:50.272Z,17.41
2022-09-15T22:14:21.537Z,17.39
2022-09-15T22:16:50.306Z,17.39
2022-09-15T22:19:18.504Z,17.42
2022-09-15T22:21:49.790Z,17.35
2022-09-15T22:24:19.527Z,17.23
2022-09-15T22:26:47.624Z,17.02
2022-09-15T22:29:16.690Z,16.92
2022-09-15T22:31:46.267Z,16.92
2022-09-15T22:34:14.378Z,16.82
2022-09-15T22:36:42.508Z,16.83
2022-09-15T22:39:13.834Z,16.90
2022-09-15T22:41:43.079Z,16.97
2022-09-15T22:44:19.000Z,16.94
2022-09-15T22:46:51.433Z,16.99
2022-09-15T22:49:21.605Z,16.94
2022-09-15T22:51:49.756Z,16.96
2022-09-15T22:54:17.930Z,16.96
2022-09-15T22:56:47.248Z,17.00
2022-09-15T22:59:25.542Z,17.02
2022-09-15T23:01:57.977Z,16.99
2022-09-15T23:04:27.282Z,17.07
2022-09-15T23:06:55.386Z,17.02
2022-09-15T23:09:25.688Z,17.04
2022-09-15T23:11:55.985Z,17.09
2022-09-15T23:14:24.058Z,17.11
2022-09-15T23:16:52.129Z,17.14
2022-09-15T23:19:27.595Z,17.07
2022-09-15T23:21:56.653Z,17.07
2022-09-15T23:24:25.988Z,17.11
2022-09-15T23:26:54.168Z,17.04
2022-09-15T23:29:26.186Z,17.07
2022-09-15T23:31:54.895Z,17.02
2022-09-15T23:34:23.146Z,17.02
2022-09-15T23:36:52.684Z,16.93
2022-09-15T23:39:20.829Z,16.82
2022-09-15T23:41:50.948Z,16.76
2022-09-15T23:44:19.377Z,16.75
2022-09-15T23:46:47.649Z,16.68
2022-09-15T23:49:18.684Z,16.65
2022-09-15T23:51:47.026Z,16.65
2022-09-15T23:54:18.617Z,16.59
2022-09-15T23:56:47.727Z,16.62
2022-09-15T23:59:18.061Z,16.62
